createdAt,value
2022-08-07T09:14:59.765Z,33.45
2022-08-07T09:18:22.877Z,33.49
2022-08-07T09:21:34.264Z,33.39
2022-08-07T09:24:58.747Z,33.04
2022-08-07T09:27:54.758Z,33.48
2022-08-07T09:30:28.026Z,33.75
2022-08-07T09:33:40.927Z,33.93
2022-08-07T09:37:00.112Z,34.03
2022-08-07T09:40:17.895Z,33.96
2022-08-07T09:44:06.500Z,34.42
2022-08-07T09:47:50.340Z,34.64
2022-08-07T09:50:19.632Z,34.78
2022-08-07T09:53:04.617Z,35.06
2022-08-07T09:56:04.677Z,35.04
2022-08-07T09:59:21.954Z,35.37
2022-08-07T10:02:34.504Z,34.86
2022-08-07T10:06:02.734Z,34.42
2022-08-07T10:09:19.502Z,34.60
2022-08-07T10:12:53.091Z,35.03
2022-08-07T10:16:09.729Z,35.13
2022-08-07T10:19:05.520Z,34.68
2022-08-07T10:22:51.024Z,34.80
2022-08-07T10:26:32.040Z,35.03
2022-08-07T10:29:45.834Z,34.93
2022-08-07T10:34:15.592Z,35.04
2022-08-07T10:36:52.378Z,35.38
2022-08-07T10:40:09.067Z,35.40
2022-08-07T10:43:46.646Z,35.33
2022-08-07T10:46:44.890Z,35.08
2022-08-07T10:49:57.819Z,34.84
2022-08-07T10:53:07.961Z,34.73
2022-08-07T10:56:20.850Z,34.68
2022-08-07T10:59:55.321Z,34.90
2022-08-07T11:03:04.207Z,34.72
2022-08-07T11:06:29.717Z,35.23
2022-08-07T11:09:13.093Z,35.93
2022-08-07T11:13:02.292Z,35.29
2022-08-07T11:15:54.493Z,35.35
2022-08-07T11:19:37.179Z,35.13
2022-08-07T11:22:46.381Z,35.75
2022-08-07T11:26:06.307Z,36.57
2022-08-07T11:29:41.136Z,36.97
2022-08-07T11:33:02.713Z,37.40
2022-08-07T11:36:12.751Z,37.86
2022-08-07T11:39:59.877Z,38.42
2022-08-07T11:43:15.906Z,39.06
2022-08-07T11:46:29.944Z,38.86
2022-08-07T11:49:50.217Z,37.97
2022-08-07T11:52:45.957Z,38.53
2022-08-07T11:56:15.565Z,38.53
2022-08-07T12:03:01.631Z,39.19
2022-08-07T12:06:36.987Z,39.57
2022-08-07T12:09:54.197Z,39.89
2022-08-07T12:13:16.918Z,40.01
2022-08-07T12:16:05.607Z,40.36
2022-08-07T12:18:54.930Z,39.61
2022-08-07T12:22:39.355Z,39.47
2022-08-07T12:26:05.724Z,38.16
2022-08-07T12:28:31.346Z,38.99
2022-08-07T12:31:53.138Z,39.17
2022-08-07T12:34:49.427Z,38.94
2022-08-07T12:38:09.244Z,38.29
2022-08-07T12:44:01.298Z,38.95
2022-08-07T12:47:27.138Z,39.32
2022-08-07T12:50:38.420Z,39.79
2022-08-07T12:54:02.753Z,40.03
2022-08-07T12:56:41.525Z,39.82
2022-08-07T12:59:20.594Z,39.83
2022-08-07T13:02:39.356Z,39.72
2022-08-07T13:06:03.552Z,40.05
2022-08-07T13:10:10.249Z,39.48
2022-08-07T13:12:22.228Z,39.63
2022-08-07T13:15:59.315Z,39.41
2022-08-07T13:19:45.954Z,38.96
2022-08-07T13:22:45.187Z,39.15
2022-08-07T13:25:34.665Z,39.13
2022-08-07T13:28:53.242Z,39.38
2022-08-07T13:32:23.821Z,39.89
2022-08-07T13:35:11.565Z,40.73
2022-08-07T13:38:06.341Z,41.26
2022-08-07T13:40:51.231Z,40.91
2022-08-07T13:43:22.667Z,41.44
2022-08-07T13:46:24.822Z,41.64
2022-08-07T13:48:58.572Z,41.84
2022-08-07T13:52:22.598Z,41.59
2022-08-07T13:54:36.008Z,40.86
2022-08-07T13:57:12.247Z,40.44
2022-08-07T13:59:54.948Z,39.92
2022-08-07T14:02:49.285Z,39.28
2022-08-07T14:05:39.946Z,38.46
2022-08-07T14:08:10.818Z,37.95
2022-08-07T14:11:15.395Z,37.46
2022-08-07T14:14:43.043Z,36.98
2022-08-07T14:18:23.522Z,36.51
2022-08-07T14:20:54.452Z,36.22
2022-08-07T14:23:58.878Z,35.87
2022-08-07T14:26:58.619Z,34.80
2022-08-07T14:30:09.703Z,34.54
2022-08-07T14:33:10.015Z,34.25
2022-08-07T14:35:44.674Z,33.95
2022-08-07T14:38:41.495Z,33.78
2022-08-07T14:42:20.711Z,33.45
2022-08-07T14:44:36.201Z,34.09
2022-08-07T14:47:14.626Z,34.64
2022-08-07T14:49:59.340Z,34.76
2022-08-07T14:52:37.745Z,35.04
2022-08-07T14:55:55.593Z,35.62
2022-08-07T14:58:31.454Z,35.98
2022-08-07T15:01:21.507Z,36.31
2022-08-07T15:06:40.129Z,36.41
2022-08-07T15:10:06.032Z,35.74
2022-08-07T15:13:23.148Z,35.18
2022-08-07T15:16:00.072Z,34.28
2022-08-07T15:18:55.014Z,34.01
2022-08-07T15:21:43.937Z,33.99
2022-08-07T15:25:13.967Z,33.47
2022-08-07T15:27:18.750Z,33.70
2022-08-07T15:30:04.881Z,33.95
2022-08-07T15:33:03.982Z,33.74
2022-08-07T15:36:01.947Z,33.60
2022-08-07T15:42:45.918Z,32.90
2022-08-07T15:45:19.399Z,32.63
2022-08-07T15:48:29.797Z,32.39
2022-08-07T15:51:15.042Z,32.20
2022-08-07T15:54:13.157Z,31.90
2022-08-07T15:57:01.309Z,31.71
2022-08-07T15:59:51.414Z,31.62
2022-08-07T16:03:01.796Z,31.54
2022-08-07T16:05:59.144Z,31.74
2022-08-07T16:09:24.311Z,31.98
2022-08-07T16:13:01.288Z,31.58
2022-08-07T16:16:48.086Z,31.09
2022-08-07T16:19:42.613Z,30.78
2022-08-07T16:22:55.782Z,30.61
2022-08-07T16:26:30.751Z,30.44
2022-08-07T16:30:11.593Z,30.19
2022-08-07T16:34:02.136Z,29.95
2022-08-07T16:37:01.974Z,29.80
2022-08-07T16:40:36.305Z,29.58
2022-08-07T16:44:40.513Z,29.11
2022-08-07T16:48:04.118Z,28.89
2022-08-07T16:51:20.894Z,28.79
2022-08-07T16:54:39.738Z,28.70
2022-08-07T16:58:03.891Z,28.65
2022-08-07T17:00:40.281Z,28.45
2022-08-07T17:03:58.038Z,28.36
2022-08-07T17:07:02.727Z,28.23
2022-08-07T17:10:36.989Z,28.17
2022-08-07T17:14:19.640Z,28.13
2022-08-07T17:16:56.085Z,28.11
2022-08-07T17:20:02.484Z,28.04
2022-08-07T17:23:42.602Z,27.96
2022-08-07T17:27:05.025Z,27.85
2022-08-07T17:30:15.973Z,27.76
2022-08-07T17:34:18.029Z,27.71
2022-08-07T17:36:13.527Z,27.65
2022-08-07T17:39:53.116Z,27.62
2022-08-07T17:42:59.916Z,27.59
2022-08-07T17:45:58.992Z,27.50
2022-08-07T17:48:44.446Z,27.44
2022-08-07T17:51:21.384Z,27.39
2022-08-07T17:54:29.533Z,27.36
2022-08-07T17:57:56.049Z,27.32
2022-08-07T18:00:33.045Z,27.23
2022-08-07T18:03:20.311Z,27.13
2022-08-07T18:06:33.324Z,27.05
2022-08-07T18:10:05.179Z,27.02
2022-08-07T18:13:52.193Z,27.00
2022-08-07T18:18:33.118Z,26.94
2022-08-07T18:21:38.365Z,26.90
2022-08-07T18:24:45.006Z,26.84
2022-08-07T18:28:35.864Z,26.76
2022-08-07T18:31:38.877Z,26.73
2022-08-07T18:35:11.164Z,26.73
2022-08-07T18:38:57.911Z,26.71
2022-08-07T18:41:44.611Z,26.64
2022-08-07T18:45:43.048Z,26.52
2022-08-07T18:48:38.206Z,26.46
2022-08-07T18:51:04.746Z,26.38
2022-08-07T18:54:30.907Z,26.34
2022-08-07T18:57:40.633Z,26.23
2022-08-07T19:00:35.652Z,26.20
2022-08-07T19:03:49.516Z,26.23
2022-08-07T19:06:48.404Z,26.24
2022-08-07T19:09:55.426Z,26.17
2022-08-07T19:13:21.576Z,26.14
2022-08-07T19:17:04.930Z,26.11
2022-08-07T19:20:03.820Z,26.14
2022-08-07T19:26:24.868Z,26.16
2022-08-07T19:31:05.485Z,26.15
2022-08-07T19:32:17.025Z,26.04
2022-08-07T19:35:16.505Z,26.03
2022-08-07T19:37:58.322Z,25.89
2022-08-07T19:41:44.547Z,25.86
2022-08-07T19:44:43.791Z,25.87
2022-08-07T19:47:51.150Z,25.85
2022-08-07T19:50:43.715Z,25.84
2022-08-07T19:54:32.246Z,25.81
2022-08-07T19:57:52.020Z,25.81
2022-08-07T20:00:01.929Z,25.79
2022-08-07T20:03:35.549Z,25.70
2022-08-07T20:06:28.467Z,25.57
2022-08-07T20:09:01.406Z,25.42
2022-08-07T20:12:22.706Z,25.24
2022-08-07T20:18:03.596Z,25.12
2022-08-07T20:20:44.983Z,25.13
2022-08-07T20:23:42.897Z,25.17
2022-08-07T20:26:15.354Z,25.15
2022-08-07T20:29:10.779Z,25.09
2022-08-07T20:31:57.001Z,25.01
2022-08-07T20:34:49.522Z,24.88
2022-08-07T20:37:36.917Z,24.71
2022-08-07T20:40:33.367Z,24.64
2022-08-07T20:43:14.679Z,24.64
2022-08-07T20:46:25.958Z,24.70
2022-08-07T20:49:00.761Z,24.71
2022-08-07T20:51:50.262Z,24.71
2022-08-07T20:54:31.963Z,24.69
2022-08-07T20:57:22.413Z,24.68
2022-08-07T21:00:09.200Z,24.72
2022-08-07T21:02:58.701Z,24.77
2022-08-07T21:05:52.759Z,24.81
2022-08-07T21:09:00.470Z,24.84
2022-08-07T21:11:40.347Z,24.83
2022-08-07T21:14:33.023Z,24.84
2022-08-07T21:18:03.550Z,24.77
2022-08-07T21:20:06.138Z,24.75
2022-08-07T21:22:51.126Z,24.73
2022-08-07T21:25:56.329Z,24.70
2022-08-07T21:28:49.267Z,24.67
2022-08-07T21:32:10.968Z,24.68
2022-08-07T21:34:56.142Z,24.66
2022-08-07T21:37:57.863Z,24.67
2022-08-07T21:40:49.980Z,24.70
2022-08-07T21:44:01.629Z,24.70
2022-08-07T21:47:01.714Z,24.65
2022-08-07T21:50:14.546Z,24.61
2022-08-07T21:53:30.502Z,24.60
2022-08-07T21:56:36.253Z,24.64
2022-08-07T22:00:05.363Z,24.60
2022-08-07T22:03:32.163Z,24.43
2022-08-07T22:06:28.747Z,24.26
2022-08-07T22:09:10.934Z,24.24
2022-08-07T22:12:04.846Z,24.27
2022-08-07T22:16:40.275Z,24.19
2022-08-07T22:18:06.791Z,24.23
2022-08-07T22:20:59.376Z,24.27
2022-08-07T22:23:58.550Z,24.19
2022-08-07T22:26:47.695Z,24.14
2022-08-07T22:29:34.022Z,24.14
2022-08-07T22:32:36.809Z,24.12
2022-08-07T22:35:16.738Z,24.10
2022-08-07T22:38:20.309Z,24.12
2022-08-07T22:41:02.946Z,24.16
2022-08-07T22:43:58.921Z,24.16
2022-08-07T22:47:16.963Z,24.17
2022-08-07T22:49:54.389Z,24.13
2022-08-07T22:52:37.285Z,24.09
2022-08-07T22:56:10.896Z,24.10
2022-08-07T22:59:32.725Z,24.06
2022-08-07T23:02:06.933Z,24.06
2022-08-07T23:06:08.600Z,24.05
2022-08-07T23:08:30.608Z,24.04
2022-08-07T23:11:12.878Z,24.02
2022-08-07T23:14:47.502Z,24.03
2022-08-07T23:17:49.121Z,24.06
2022-08-07T23:20:52.722Z,24.07
2022-08-07T23:24:06.490Z,23.92
2022-08-07T23:27:01.322Z,23.93
2022-08-07T23:30:37.094Z,23.96
2022-08-07T23:34:35.500Z,23.92
2022-08-07T23:36:43.058Z,23.94
2022-08-07T23:39:25.598Z,23.98
2022-08-07T23:42:30.516Z,23.98
2022-08-07T23:45:33.235Z,23.96
2022-08-07T23:48:43.071Z,23.77
2022-08-07T23:53:17.606Z,23.64
2022-08-07T23:55:12.688Z,23.68
2022-08-07T23:58:50.831Z,23.65
